Main page
METAR-TAF:

METAR-TAF

Airports :

Lomé–Tokoin International Airport

Lomé, Togo

latitude: 06-10N, longitude: 001-15E, elevation: 20 m

Current weather observation

The report was made 42 minutes ago, at 14:00 UTC
Wind 14 kt from the South/Southwest
Temperature 33°C
Humidity 63%
Pressure 1008 hPa
Visibility 10 km or more
Few clouds at a height of 1500 ft

METAR: DXXX 081400Z 20014KT 9999 FEW015 33/25 Q1008 NOSIG

Time: 14:42 (14:42 UTC)

Forecast

The report was made 3 hours and 42 minutes ago, at 11:00 UTC
Forecast valid from 08 at 12 UTC to 09 at 18 UTC
Wind 13 kt from the Southwest
Visibility 10 km or more
Few clouds at a height of 1500 ft
Probability 30% :
Temporary
from 08 at 15 UTC to 08 at 19 UTC
Broken clouds at a height of 1200 ft
Few clouds at a height of 2000 ft, Cumulonimbus.
thunderstorm

TAF: DXXX 081100Z 0812/0918 22013KT 9999 FEW015 PROB30 TEMPO 0815/0819 TS BKN012 FEW020CB

Weather observations and forecasts of more than 4000 airports (METAR and TAF reports).

The available stations are represented by yellow and red dots on the map.

Hover mouse over dot to see the name of the station.

Then click to see weather observations and forecasts.

To change the map : click on the green buttons with a black cross to zoom in, on the green button with a dash to zoom out, or on the green arrows for adjacent maps.


METAR-TAF: